N820DC KPSO-KLVS
Flight info
| Callsign | N820DC |
|---|---|
| Flight time | N/A |
| Altitude | 17000 |
| Route | DUGNE FEMAD V211 BRAZO TAS FTI |
| Aircraft | B350/L-SBGRW/S |
Departure
| Time | 2026-04-27 04:49 |
|---|---|
| Airport | Stevens Field (KPSO) |
Arrival
| Time | N/A |
|---|---|
| Airport | Las Vegas Municipal Airport (KLVS) |
| Time | Latitude | Longitude | Altitude | Speed | Heading |
|---|---|---|---|---|---|
| 2026-04-27 04:46 | 37.28887 | -107.05677 | 7648 ft | 0 kts | 210° |
| 2026-04-27 04:46 | 37.28863 | -107.05677 | 7651 ft | 14 kts | 136° |
| 2026-04-27 04:46 | 37.28975 | -107.05560 | 7655 ft | 35 kts | 23° |
| 2026-04-27 04:47 | 37.29194 | -107.05438 | 7659 ft | 33 kts | 22° |
| 2026-04-27 04:47 | 37.29408 | -107.05320 | 7663 ft | 35 kts | 24° |
| 2026-04-27 04:47 | 37.29626 | -107.05198 | 7667 ft | 23 kts | 24° |
| 2026-04-27 04:47 | 37.29647 | -107.05071 | 7669 ft | 20 kts | 114° |
| 2026-04-27 04:48 | 37.29430 | -107.05158 | 7665 ft | 74 kts | 203° |
| 2026-04-27 04:48 | 37.28736 | -107.05538 | 7651 ft | 138 kts | 203° |
| 2026-04-27 04:48 | 37.27714 | -107.06070 | 7842 ft | 174 kts | 201° |
| 2026-04-27 04:48 | 37.26430 | -107.06354 | 8054 ft | 211 kts | 184° |
| 2026-04-27 04:49 | 37.24849 | -107.06409 | 8154 ft | 236 kts | 182° |
| 2026-04-27 04:49 | 37.23123 | -107.06507 | 8278 ft | 249 kts | 184° |
| 2026-04-27 04:49 | 37.21439 | -107.06672 | 9012 ft | 239 kts | 185° |
| 2026-04-27 04:49 | 37.19806 | -107.06861 | 9651 ft | 231 kts | 187° |
| 2026-04-27 04:50 | 37.18249 | -107.07061 | 10281 ft | 224 kts | 190° |
| 2026-04-27 04:50 | 37.16730 | -107.07263 | 10937 ft | 215 kts | 192° |
| 2026-04-27 04:50 | 37.15266 | -107.07459 | 11613 ft | 209 kts | 193° |
| 2026-04-27 04:50 | 37.13810 | -107.07363 | 12226 ft | 219 kts | 172° |
| 2026-04-27 04:51 | 37.12417 | -107.06205 | 12079 ft | 267 kts | 129° |
| 2026-04-27 04:51 | 37.11638 | -107.04127 | 12724 ft | 258 kts | 115° |
| 2026-04-27 04:51 | 37.11030 | -107.02049 | 13391 ft | 248 kts | 121° |
| 2026-04-27 04:51 | 37.10188 | -107.00214 | 14041 ft | 239 kts | 129° |
| 2026-04-27 04:52 | 37.09308 | -106.98471 | 14705 ft | 235 kts | 129° |
| 2026-04-27 04:52 | 37.08467 | -106.96732 | 15350 ft | 232 kts | 128° |
| 2026-04-27 04:52 | 37.07660 | -106.95000 | 16011 ft | 230 kts | 128° |
| 2026-04-27 04:52 | 37.06850 | -106.93227 | 16334 ft | 242 kts | 127° |
| 2026-04-27 04:53 | 37.05994 | -106.91334 | 16562 ft | 256 kts | 127° |
| 2026-04-27 04:53 | 37.05106 | -106.89351 | 16803 ft | 266 kts | 126° |
| 2026-04-27 04:53 | 37.04192 | -106.87292 | 17029 ft | 275 kts | 126° |
| 2026-04-27 04:53 | 37.03260 | -106.85171 | 17240 ft | 281 kts | 126° |
| 2026-04-27 04:54 | 37.02313 | -106.83019 | 17470 ft | 284 kts | 126° |
| 2026-04-27 04:54 | 37.01355 | -106.80840 | 17685 ft | 287 kts | 126° |
| 2026-04-27 04:54 | 37.00387 | -106.78651 | 17913 ft | 288 kts | 126° |
| 2026-04-27 04:54 | 36.99413 | -106.76451 | 18149 ft | 289 kts | 126° |
| 2026-04-27 04:55 | 36.98437 | -106.74245 | 18371 ft | 290 kts | 126° |
| 2026-04-27 04:55 | 36.97455 | -106.72023 | 18609 ft | 292 kts | 126° |
| 2026-04-27 04:55 | 36.96465 | -106.69799 | 18818 ft | 293 kts | 127° |
| 2026-04-27 04:55 | 36.95475 | -106.67571 | 19037 ft | 293 kts | 127° |
| 2026-04-27 04:56 | 36.94481 | -106.65335 | 19278 ft | 295 kts | 127° |
| 2026-04-27 04:56 | 36.93483 | -106.63091 | 19500 ft | 296 kts | 127° |
| 2026-04-27 04:56 | 36.92483 | -106.60844 | 19722 ft | 295 kts | 127° |
| 2026-04-27 04:56 | 36.91485 | -106.58600 | 19950 ft | 295 kts | 127° |
| 2026-04-27 04:57 | 36.90501 | -106.56390 | 20179 ft | 295 kts | 128° |
| 2026-04-27 04:57 | 36.89503 | -106.54145 | 20419 ft | 296 kts | 128° |
| 2026-04-27 04:57 | 36.88495 | -106.51893 | 20632 ft | 297 kts | 128° |
| 2026-04-27 04:57 | 36.87489 | -106.49640 | 20836 ft | 297 kts | 128° |
| 2026-04-27 04:58 | 36.86483 | -106.47395 | 21060 ft | 297 kts | 128° |
| 2026-04-27 04:58 | 36.85475 | -106.45140 | 21284 ft | 297 kts | 128° |
| 2026-04-27 04:58 | 36.84468 | -106.42886 | 21531 ft | 297 kts | 129° |
| 2026-04-27 04:58 | 36.83461 | -106.40635 | 21744 ft | 298 kts | 129° |
| 2026-04-27 04:59 | 36.82455 | -106.38384 | 21948 ft | 296 kts | 129° |
| 2026-04-27 04:59 | 36.81452 | -106.36141 | 22176 ft | 295 kts | 129° |
| 2026-04-27 04:59 | 36.80448 | -106.33906 | 22418 ft | 295 kts | 130° |
| 2026-04-27 04:59 | 36.79444 | -106.31674 | 22640 ft | 295 kts | 130° |
| 2026-04-27 05:00 | 36.78434 | -106.29434 | 22873 ft | 296 kts | 130° |
| 2026-04-27 05:00 | 36.77428 | -106.27194 | 23097 ft | 296 kts | 130° |
| 2026-04-27 05:00 | 36.76417 | -106.24953 | 23316 ft | 296 kts | 131° |
| 2026-04-27 05:00 | 36.75408 | -106.22710 | 23548 ft | 297 kts | 131° |
| 2026-04-27 05:01 | 36.74397 | -106.20464 | 23787 ft | 297 kts | 131° |
| 2026-04-27 05:01 | 36.73392 | -106.18244 | 23998 ft | 298 kts | 131° |
| 2026-04-27 05:01 | 36.72374 | -106.15992 | 24224 ft | 298 kts | 131° |
| 2026-04-27 05:01 | 36.71361 | -106.13746 | 24457 ft | 299 kts | 132° |
| 2026-04-27 05:02 | 36.70341 | -106.11486 | 24668 ft | 299 kts | 132° |
| 2026-04-27 05:02 | 36.69322 | -106.09231 | 24912 ft | 299 kts | 132° |
| 2026-04-27 05:02 | 36.67279 | -106.04716 | 25344 ft | 299 kts | 133° |
| 2026-04-27 05:03 | 36.66259 | -106.02461 | 25565 ft | 298 kts | 133° |
| 2026-04-27 05:03 | 36.65242 | -106.00214 | 25791 ft | 298 kts | 134° |
| 2026-04-27 05:03 | 36.64221 | -105.97965 | 26020 ft | 298 kts | 134° |
| 2026-04-27 05:03 | 36.63201 | -105.95720 | 26247 ft | 298 kts | 135° |
| 2026-04-27 05:04 | 36.62181 | -105.93478 | 26474 ft | 298 kts | 135° |
| 2026-04-27 05:04 | 36.61146 | -105.91258 | 26700 ft | 295 kts | 137° |
| 2026-04-27 05:04 | 36.60041 | -105.89130 | 26925 ft | 290 kts | 141° |
| 2026-04-27 05:04 | 36.58869 | -105.87070 | 26988 ft | 295 kts | 142° |
| 2026-04-27 05:05 | 36.57659 | -105.84978 | 26984 ft | 301 kts | 142° |
| 2026-04-27 05:05 | 36.56430 | -105.82846 | 26983 ft | 305 kts | 142° |
| 2026-04-27 05:05 | 36.55190 | -105.80686 | 26982 ft | 309 kts | 141° |
| 2026-04-27 05:05 | 36.53936 | -105.78494 | 26881 ft | 316 kts | 141° |
| 2026-04-27 05:06 | 36.52613 | -105.76210 | 26356 ft | 334 kts | 140° |
| 2026-04-27 05:06 | 36.51710 | -105.74646 | 26237 ft | 337 kts | 140° |
| 2026-04-27 05:06 | 36.50357 | -105.72273 | 25923 ft | 337 kts | 139° |
| 2026-04-27 05:06 | 36.49014 | -105.69899 | 25550 ft | 334 kts | 139° |
| 2026-04-27 05:07 | 36.47678 | -105.67543 | 24967 ft | 333 kts | 139° |
| 2026-04-27 05:07 | 36.46345 | -105.65204 | 24407 ft | 331 kts | 138° |
| 2026-04-27 05:07 | 36.45023 | -105.62886 | 23868 ft | 327 kts | 138° |
| 2026-04-27 05:07 | 36.43708 | -105.60591 | 23303 ft | 326 kts | 138° |
| 2026-04-27 05:08 | 36.42400 | -105.58312 | 22727 ft | 323 kts | 138° |
| 2026-04-27 05:08 | 36.41097 | -105.56047 | 22166 ft | 321 kts | 137° |
| 2026-04-27 05:08 | 36.39806 | -105.53801 | 21630 ft | 318 kts | 137° |
| 2026-04-27 05:08 | 36.38525 | -105.51577 | 21103 ft | 316 kts | 137° |
| 2026-04-27 05:09 | 36.37254 | -105.49371 | 20553 ft | 311 kts | 136° |
| 2026-04-27 05:09 | 36.35993 | -105.47182 | 19948 ft | 312 kts | 135° |
| 2026-04-27 05:09 | 36.34747 | -105.44997 | 19361 ft | 309 kts | 136° |
| 2026-04-27 05:09 | 36.33500 | -105.42838 | 18734 ft | 307 kts | 136° |
| 2026-04-27 05:10 | 36.32248 | -105.40692 | 18188 ft | 305 kts | 135° |
| 2026-04-27 05:10 | 36.31028 | -105.38597 | 17608 ft | 302 kts | 135° |
| 2026-04-27 05:10 | 36.29784 | -105.36455 | 17014 ft | 303 kts | 135° |
| 2026-04-27 05:10 | 36.28573 | -105.34368 | 16438 ft | 302 kts | 134° |
| 2026-04-27 05:11 | 36.27352 | -105.32255 | 15979 ft | 303 kts | 134° |
| 2026-04-27 05:11 | 36.26122 | -105.30117 | 15712 ft | 305 kts | 134° |
| 2026-04-27 05:11 | 36.24885 | -105.27986 | 15507 ft | 304 kts | 134° |
| 2026-04-27 05:11 | 36.23648 | -105.25866 | 15262 ft | 304 kts | 133° |
| 2026-04-27 05:12 | 36.22409 | -105.23741 | 15063 ft | 304 kts | 133° |
| 2026-04-27 05:12 | 36.21178 | -105.21618 | 14935 ft | 303 kts | 133° |
| 2026-04-27 05:12 | 36.19943 | -105.19490 | 14729 ft | 304 kts | 133° |
| 2026-04-27 05:12 | 36.18708 | -105.17366 | 14545 ft | 303 kts | 133° |
| 2026-04-27 05:13 | 36.17474 | -105.15253 | 14348 ft | 303 kts | 133° |
| 2026-04-27 05:13 | 36.16241 | -105.13140 | 14127 ft | 304 kts | 133° |
| 2026-04-27 05:13 | 36.15002 | -105.11018 | 13942 ft | 304 kts | 133° |
| 2026-04-27 05:13 | 36.13769 | -105.08902 | 13751 ft | 303 kts | 133° |
| 2026-04-27 05:14 | 36.12537 | -105.06795 | 13520 ft | 303 kts | 133° |
| 2026-04-27 05:14 | 36.11301 | -105.04673 | 13260 ft | 301 kts | 133° |
| 2026-04-27 05:14 | 36.10054 | -105.02605 | 12597 ft | 298 kts | 138° |
| 2026-04-27 05:14 | 36.08543 | -105.00957 | 12024 ft | 283 kts | 156° |
| 2026-04-27 05:15 | 36.07059 | -105.00154 | 11484 ft | 272 kts | 173° |
| 2026-04-27 05:15 | 36.05227 | -104.99917 | 10847 ft | 260 kts | 190° |
| 2026-04-27 05:15 | 36.03411 | -104.99980 | 10218 ft | 263 kts | 184° |
| 2026-04-27 05:15 | 36.01613 | -104.99785 | 10016 ft | 251 kts | 181° |
| 2026-04-27 05:16 | 35.99935 | -104.99595 | 9972 ft | 234 kts | 183° |
| 2026-04-27 05:16 | 35.98353 | -104.99453 | 9957 ft | 222 kts | 185° |
| 2026-04-27 05:16 | 35.96846 | -104.99341 | 9949 ft | 214 kts | 185° |
| 2026-04-27 05:16 | 35.95386 | -104.99241 | 9935 ft | 207 kts | 186° |
| 2026-04-27 05:17 | 35.93974 | -104.99153 | 9938 ft | 200 kts | 187° |
| 2026-04-27 05:17 | 35.92591 | -104.99073 | 9938 ft | 197 kts | 187° |
| 2026-04-27 05:17 | 35.91229 | -104.98989 | 9928 ft | 195 kts | 187° |
| 2026-04-27 05:17 | 35.89885 | -104.98906 | 9925 ft | 192 kts | 187° |
| 2026-04-27 05:18 | 35.88556 | -104.98821 | 9924 ft | 190 kts | 187° |
| 2026-04-27 05:18 | 35.87239 | -104.98739 | 9924 ft | 189 kts | 187° |
| 2026-04-27 05:18 | 35.85932 | -104.98662 | 9924 ft | 187 kts | 187° |
| 2026-04-27 05:18 | 35.84632 | -104.98589 | 9925 ft | 185 kts | 189° |
| 2026-04-27 05:19 | 35.83425 | -104.98881 | 9922 ft | 172 kts | 212° |
| 2026-04-27 05:19 | 35.82442 | -104.99665 | 9932 ft | 167 kts | 222° |
| 2026-04-27 05:19 | 35.81541 | -105.00419 | 9927 ft | 145 kts | 220° |
| 2026-04-27 05:19 | 35.80754 | -105.01068 | 9927 ft | 129 kts | 222° |
| 2026-04-27 05:20 | 35.80048 | -105.01694 | 9924 ft | 121 kts | 223° |
| 2026-04-27 05:20 | 35.79372 | -105.02289 | 9925 ft | 120 kts | 223° |
| 2026-04-27 05:20 | 35.78685 | -105.02887 | 9913 ft | 121 kts | 222° |
| 2026-04-27 05:20 | 35.77979 | -105.03487 | 9812 ft | 127 kts | 221° |
| 2026-04-27 05:21 | 35.77230 | -105.04126 | 9637 ft | 134 kts | 222° |
| 2026-04-27 05:21 | 35.76456 | -105.04789 | 9437 ft | 139 kts | 221° |
| 2026-04-27 05:21 | 35.75655 | -105.05471 | 9250 ft | 142 kts | 221° |
| 2026-04-27 05:21 | 35.74837 | -105.06170 | 9052 ft | 144 kts | 220° |
| 2026-04-27 05:22 | 35.74012 | -105.06878 | 8846 ft | 145 kts | 220° |
| 2026-04-27 05:22 | 35.73180 | -105.07594 | 8645 ft | 147 kts | 219° |
| 2026-04-27 05:22 | 35.72333 | -105.08320 | 8427 ft | 149 kts | 218° |
| 2026-04-27 05:22 | 35.71475 | -105.09055 | 8217 ft | 151 kts | 217° |
| 2026-04-27 05:23 | 35.70610 | -105.09800 | 8012 ft | 153 kts | 216° |
| 2026-04-27 05:23 | 35.69726 | -105.10552 | 7800 ft | 156 kts | 215° |
| 2026-04-27 05:23 | 35.68829 | -105.11315 | 7585 ft | 158 kts | 215° |
| 2026-04-27 05:23 | 35.67930 | -105.12090 | 7369 ft | 158 kts | 215° |
| 2026-04-27 05:24 | 35.67131 | -105.12776 | 7171 ft | 124 kts | 215° |
| 2026-04-27 05:24 | 35.66475 | -105.13336 | 7004 ft | 107 kts | 215° |
| 2026-04-27 05:24 | 35.65892 | -105.13831 | 6876 ft | 80 kts | 215° |